createdAt,value
2018-09-23T00:00:20.960Z,14.15
2018-09-23T00:02:24.461Z,14.10
2018-09-23T00:04:27.936Z,13.60
2018-09-23T00:06:31.401Z,12.77
2018-09-23T00:08:35.100Z,12.37
2018-09-23T00:10:38.564Z,17.30
2018-09-23T00:12:41.784Z,13.07
2018-09-23T00:14:45.073Z,15.10
2018-09-23T00:16:48.299Z,16.57
2018-09-23T00:18:52.315Z,14.07
2018-09-23T00:20:55.636Z,14.20
2018-09-23T00:22:58.812Z,14.93
2018-09-23T00:25:02.897Z,13.90
2018-09-23T00:27:06.124Z,11.33
2018-09-23T00:29:09.297Z,14.87
2018-09-23T00:31:12.668Z,13.63
2018-09-23T00:33:16.138Z,15.43
2018-09-23T00:35:19.962Z,15.80
2018-09-23T00:37:23.724Z,13.38
2018-09-23T00:39:27.460Z,11.90
2018-09-23T00:41:30.940Z,13.55
2018-09-23T00:43:34.428Z,16.48
2018-09-23T00:45:38.267Z,14.83
2018-09-23T00:47:42.095Z,16.15
2018-09-23T00:49:45.578Z,15.28
2018-09-23T00:51:49.464Z,12.85
2018-09-23T00:53:52.938Z,13.55
2018-09-23T00:55:56.376Z,15.88
2018-09-23T00:58:00.149Z,18.20
2018-09-23T01:00:04.440Z,15.78
2018-09-23T01:02:07.908Z,16.60
2018-09-23T01:04:11.408Z,20.48
2018-09-23T01:06:14.613Z,17.50
2018-09-23T01:08:18.142Z,17.00
2018-09-23T01:10:21.716Z,17.27
2018-09-23T01:12:24.900Z,17.42
2018-09-23T01:14:28.438Z,21.93
2018-09-23T01:16:32.942Z,21.12
2018-09-23T01:18:36.605Z,18.98
2018-09-23T01:20:39.792Z,16.60
2018-09-23T01:22:44.033Z,22.20
2018-09-23T01:24:48.156Z,21.30
2018-09-23T01:26:51.697Z,20.90
2018-09-23T01:28:55.539Z,20.12
2018-09-23T01:30:59.027Z,20.90
2018-09-23T01:33:02.484Z,26.73
2018-09-23T01:35:05.967Z,26.70
2018-09-23T01:37:09.982Z,33.50
2018-09-23T01:39:13.532Z,26.90
2018-09-23T01:41:17.033Z,29.18
2018-09-23T01:43:20.504Z,27.73
2018-09-23T01:45:23.725Z,27.97
2018-09-23T01:47:26.980Z,34.93
2018-09-23T01:49:30.460Z,34.35
2018-09-23T01:51:34.191Z,34.05
2018-09-23T01:53:37.581Z,36.60
2018-09-23T01:55:41.075Z,31.02
2018-09-23T01:57:44.553Z,34.63
2018-09-23T01:59:47.753Z,37.03
2018-09-23T02:01:50.941Z,32.17
2018-09-23T02:03:54.856Z,31.93
2018-09-23T02:05:58.335Z,28.47
2018-09-23T02:08:01.532Z,39.27
2018-09-23T02:10:04.844Z,31.37
2018-09-23T02:12:08.328Z,38.75
2018-09-23T02:14:11.808Z,36.35
2018-09-23T02:16:15.078Z,42.40
2018-09-23T02:18:18.286Z,39.65
2018-09-23T02:20:21.474Z,38.03
2018-09-23T02:22:24.693Z,42.97
2018-09-23T02:24:27.929Z,39.03
2018-09-23T02:26:31.592Z,40.63
2018-09-23T02:28:35.162Z,41.45
2018-09-23T02:30:38.361Z,33.77
2018-09-23T02:32:41.601Z,41.87
2018-09-23T02:34:45.713Z,40.48
2018-09-23T02:36:48.913Z,41.17
2018-09-23T02:38:52.385Z,42.20
2018-09-23T02:40:55.891Z,41.80
2018-09-23T02:42:59.368Z,40.67
2018-09-23T02:45:02.570Z,36.47
2018-09-23T02:47:06.736Z,39.83
2018-09-23T02:49:10.228Z,33.65
2018-09-23T02:51:13.697Z,32.20
2018-09-23T02:53:17.712Z,34.92
2018-09-23T02:55:21.145Z,33.33
2018-09-23T02:57:24.669Z,26.48
2018-09-23T02:59:28.491Z,34.65
2018-09-23T03:01:31.752Z,41.33
2018-09-23T03:03:34.947Z,34.57
2018-09-23T03:05:38.367Z,31.27
2018-09-23T03:07:42.068Z,32.00
2018-09-23T03:09:45.326Z,35.23
2018-09-23T03:11:48.732Z,30.60
2018-09-23T03:13:52.187Z,31.55
2018-09-23T03:15:55.645Z,25.82
2018-09-23T03:17:59.352Z,25.30
2018-09-23T03:20:02.871Z,34.05
2018-09-23T03:22:06.260Z,31.48
2018-09-23T03:24:10.172Z,24.70
2018-09-23T03:26:13.649Z,27.93
2018-09-23T03:28:16.847Z,29.30
2018-09-23T03:30:20.025Z,28.50
2018-09-23T03:32:23.296Z,29.43
2018-09-23T03:34:26.478Z,30.77
2018-09-23T03:36:30.200Z,31.55
2018-09-23T03:38:33.680Z,27.52
2018-09-23T03:40:37.637Z,34.50
2018-09-23T03:42:41.352Z,30.50
2018-09-23T03:44:45.009Z,28.92
2018-09-23T03:46:48.439Z,31.37
2018-09-23T03:48:51.825Z,26.07
2018-09-23T03:50:55.316Z,29.80
2018-09-23T03:52:59.204Z,26.68
2018-09-23T03:55:02.928Z,32.23
2018-09-23T03:57:06.196Z,31.80
2018-09-23T03:59:09.921Z,30.95
2018-09-23T04:01:13.427Z,34.53
2018-09-23T04:03:16.813Z,31.07
2018-09-23T04:05:20.328Z,32.67
2018-09-23T04:07:24.330Z,30.20
2018-09-23T04:09:27.815Z,33.20
2018-09-23T04:11:31.210Z,30.32
2018-09-23T04:13:34.440Z,31.62
2018-09-23T04:15:37.632Z,32.53
2018-09-23T04:17:40.819Z,31.13
2018-09-23T04:19:44.169Z,26.97
2018-09-23T04:21:47.654Z,31.70
2018-09-23T04:23:51.105Z,30.12
2018-09-23T04:25:54.596Z,34.83
2018-09-23T04:27:57.824Z,25.50
2018-09-23T04:30:01.006Z,35.83
2018-09-23T04:32:04.539Z,29.95
2018-09-23T04:34:08.274Z,34.92
2018-09-23T04:36:11.804Z,36.37
2018-09-23T04:38:15.434Z,34.98
2018-09-23T04:40:18.688Z,34.60
2018-09-23T04:42:21.922Z,33.10
2018-09-23T04:44:25.392Z,33.07
2018-09-23T04:46:28.865Z,38.63
2018-09-23T04:48:32.976Z,35.95
2018-09-23T04:50:36.464Z,32.60
2018-09-23T04:52:39.648Z,32.53
2018-09-23T04:54:42.844Z,37.15
2018-09-23T04:56:46.075Z,43.05
2018-09-23T04:58:50.034Z,34.25
2018-09-23T05:00:53.237Z,40.08
2018-09-23T05:02:57.165Z,36.23
2018-09-23T05:05:00.685Z,37.35
2018-09-23T05:07:04.435Z,36.68
2018-09-23T05:09:09.119Z,33.67
2018-09-23T05:11:12.854Z,42.62
2018-09-23T05:13:16.293Z,37.45
2018-09-23T05:15:19.730Z,37.75
2018-09-23T05:17:23.208Z,35.30
2018-09-23T05:19:26.888Z,36.88
2018-09-23T05:21:30.120Z,36.07
2018-09-23T05:23:33.697Z,35.00
2018-09-23T05:25:37.214Z,37.67
2018-09-23T05:27:40.721Z,36.30
2018-09-23T05:29:43.967Z,30.17
2018-09-23T05:31:47.608Z,37.63
2018-09-23T05:33:51.024Z,39.73
2018-09-23T05:35:54.222Z,29.35
2018-09-23T05:37:57.928Z,30.00
2018-09-23T05:40:01.473Z,36.65
2018-09-23T05:42:05.336Z,37.97
2018-09-23T05:44:09.529Z,36.60
2018-09-23T05:46:13.150Z,40.48
2018-09-23T05:48:16.340Z,38.93
2018-09-23T05:50:19.557Z,37.37
2018-09-23T05:52:23.190Z,42.57
2018-09-23T05:54:26.856Z,41.23
2018-09-23T05:56:30.779Z,38.23
2018-09-23T05:58:34.697Z,37.93
2018-09-23T06:00:40.893Z,38.35
2018-09-23T06:02:44.372Z,36.05
2018-09-23T06:04:47.876Z,39.90
2018-09-23T06:06:51.600Z,37.38
2018-09-23T06:08:55.179Z,34.38
2018-09-23T06:10:58.528Z,31.00
2018-09-23T06:13:02.108Z,43.08
2018-09-23T06:15:05.917Z,41.53
2018-09-23T06:17:10.129Z,40.05
2018-09-23T06:19:13.916Z,39.98
2018-09-23T06:21:17.112Z,34.95
2018-09-23T06:23:20.835Z,42.30
2018-09-23T06:25:24.517Z,36.63
2018-09-23T06:27:27.712Z,36.73
2018-09-23T06:29:31.090Z,37.20
2018-09-23T06:31:34.570Z,39.50
2018-09-23T06:33:38.068Z,40.12
2018-09-23T06:35:41.573Z,41.98
2018-09-23T06:37:45.286Z,35.67
2018-09-23T06:39:49.031Z,39.10
2018-09-23T06:41:52.804Z,37.15
2018-09-23T06:43:56.329Z,41.08
2018-09-23T06:46:00.125Z,36.80
2018-09-23T06:48:03.645Z,36.83
2018-09-23T06:50:07.104Z,37.77
2018-09-23T06:52:10.874Z,34.63
2018-09-23T06:54:14.108Z,35.37
2018-09-23T06:56:17.317Z,31.17
2018-09-23T06:58:20.528Z,35.83
2018-09-23T07:00:23.748Z,40.40
2018-09-23T07:02:27.556Z,35.85
2018-09-23T07:04:31.072Z,35.95
2018-09-23T07:06:34.720Z,35.50
2018-09-23T07:08:38.680Z,33.00
2018-09-23T07:10:42.573Z,30.30
2018-09-23T07:12:45.764Z,33.47
2018-09-23T07:14:49.322Z,34.80
2018-09-23T07:16:52.899Z,32.80
2018-09-23T07:18:56.352Z,32.67
2018-09-23T07:20:59.812Z,35.70
2018-09-23T07:23:03.304Z,36.73
2018-09-23T07:25:07.430Z,32.40
2018-09-23T07:27:11.832Z,34.03
2018-09-23T07:29:15.657Z,34.30
2018-09-23T07:31:19.153Z,32.93
2018-09-23T07:33:22.668Z,31.05
2018-09-23T07:35:25.888Z,33.73
2018-09-23T07:37:29.089Z,30.53
2018-09-23T07:39:33.290Z,30.97
2018-09-23T07:41:36.889Z,30.48
2018-09-23T07:43:40.392Z,35.60
2018-09-23T07:45:44.204Z,30.32
2018-09-23T07:47:47.689Z,34.60
2018-09-23T07:49:51.176Z,31.65
2018-09-23T07:51:54.380Z,30.85
2018-09-23T07:53:57.590Z,32.00
2018-09-23T07:56:00.784Z,31.30
2018-09-23T07:58:04.024Z,34.63
2018-09-23T08:00:07.252Z,33.60
2018-09-23T08:02:10.448Z,34.60
2018-09-23T08:04:13.634Z,33.77
2018-09-23T08:06:16.825Z,34.65
2018-09-23T08:08:20.707Z,34.75
2018-09-23T08:10:24.350Z,36.55
2018-09-23T08:12:27.651Z,38.53
2018-09-23T08:14:31.685Z,31.45
2018-09-23T08:16:35.144Z,36.25
2018-09-23T08:18:38.361Z,36.20
2018-09-23T08:20:41.675Z,32.23
2018-09-23T08:22:45.265Z,34.18
2018-09-23T08:24:49.073Z,35.23
2018-09-23T08:26:52.554Z,32.75
2018-09-23T08:28:56.047Z,32.17
2018-09-23T08:31:00.076Z,34.88
2018-09-23T08:33:03.679Z,36.42
2018-09-23T08:35:07.372Z,34.50
2018-09-23T08:37:11.515Z,37.48
2018-09-23T08:39:15.480Z,37.70
2018-09-23T08:41:18.713Z,36.07
2018-09-23T08:43:22.362Z,37.63
2018-09-23T08:45:25.962Z,34.80
2018-09-23T08:47:29.438Z,33.67
2018-09-23T08:49:32.680Z,33.90
2018-09-23T08:51:35.882Z,31.77
2018-09-23T08:53:39.065Z,32.17
2018-09-23T08:55:47.005Z,37.47
2018-09-23T08:57:51.244Z,31.50
2018-09-23T08:59:55.068Z,35.05
2018-09-23T09:01:59.045Z,31.60
2018-09-23T09:04:03.265Z,36.70
2018-09-23T09:06:08.517Z,33.48
2018-09-23T09:08:12.904Z,32.97
2018-09-23T09:10:19.416Z,34.20
2018-09-23T09:12:23.033Z,34.13
2018-09-23T09:14:26.704Z,32.63
2018-09-23T09:16:31.307Z,31.42
2018-09-23T09:18:36.493Z,31.35
2018-09-23T09:20:40.844Z,31.62
2018-09-23T09:22:45.198Z,29.72
2018-09-23T09:24:49.048Z,32.80
2018-09-23T09:26:53.359Z,29.87
2018-09-23T09:28:57.693Z,29.85
2018-09-23T09:31:01.204Z,36.23
2018-09-23T09:33:06.342Z,32.95
2018-09-23T09:35:10.040Z,28.90
2018-09-23T09:37:15.160Z,27.87
2018-09-23T09:39:19.642Z,26.70
2018-09-23T09:41:23.492Z,29.07
2018-09-23T09:43:28.547Z,30.02
2018-09-23T09:45:32.985Z,29.77
2018-09-23T09:47:36.462Z,25.92
2018-09-23T09:49:40.016Z,30.37
2018-09-23T09:51:43.500Z,25.17
2018-09-23T09:53:47.368Z,24.45
2018-09-23T09:55:50.841Z,27.32
2018-09-23T09:57:54.313Z,26.77
2018-09-23T09:59:57.866Z,29.60
2018-09-23T10:02:01.345Z,27.07
2018-09-23T10:04:04.914Z,27.90
2018-09-23T10:06:08.817Z,28.10
2018-09-23T10:08:12.301Z,25.90
2018-09-23T10:10:15.756Z,23.77
2018-09-23T10:12:19.243Z,27.13
2018-09-23T10:14:22.427Z,24.67
2018-09-23T10:16:25.811Z,19.95
2018-09-23T10:18:29.156Z,24.27
2018-09-23T10:20:32.342Z,27.60
2018-09-23T10:22:36.277Z,31.73
2018-09-23T10:24:39.954Z,26.45
2018-09-23T10:26:43.581Z,26.83
2018-09-23T10:28:47.136Z,21.65
2018-09-23T10:30:50.672Z,26.48
2018-09-23T10:32:53.888Z,25.13
2018-09-23T10:34:57.287Z,27.30
2018-09-23T10:37:00.481Z,26.47
2018-09-23T10:39:05.038Z,23.23
2018-09-23T10:41:08.896Z,23.22
2018-09-23T10:43:12.588Z,23.50
2018-09-23T10:45:15.894Z,17.70
2018-09-23T10:47:20.017Z,19.62
2018-09-23T10:49:23.574Z,16.90
2018-09-23T10:51:27.040Z,22.25
2018-09-23T10:53:30.529Z,21.82
2018-09-23T10:55:34.079Z,19.00
2018-09-23T10:57:37.432Z,24.10
2018-09-23T10:59:40.725Z,19.47
2018-09-23T11:01:44.684Z,21.77
2018-09-23T11:03:48.615Z,23.02
2018-09-23T11:05:52.549Z,20.55
2018-09-23T11:07:56.090Z,24.27
2018-09-23T11:09:59.458Z,18.93
2018-09-23T11:12:03.933Z,23.35
2018-09-23T11:14:07.801Z,22.00
2018-09-23T11:16:11.386Z,25.93
2018-09-23T11:18:15.082Z,21.30
2018-09-23T11:20:18.905Z,29.10
2018-09-23T11:22:22.593Z,20.75
2018-09-23T11:24:26.089Z,22.77
2018-09-23T11:26:29.318Z,22.67
2018-09-23T11:28:33.159Z,20.50
2018-09-23T11:30:36.652Z,22.37
2018-09-23T11:32:40.132Z,16.90
2018-09-23T11:34:43.338Z,16.03
2018-09-23T11:36:46.552Z,17.37
2018-09-23T11:38:50.218Z,17.23
2018-09-23T11:40:53.828Z,19.07
2018-09-23T11:42:57.243Z,15.40
2018-09-23T11:45:01.056Z,16.83
2018-09-23T11:47:04.837Z,16.77
2018-09-23T11:49:08.018Z,15.20
2018-09-23T11:51:11.228Z,16.63
2018-09-23T11:53:14.444Z,21.33
2018-09-23T11:55:17.904Z,19.05
2018-09-23T11:57:21.173Z,20.33
2018-09-23T11:59:24.472Z,19.20
2018-09-23T12:01:28.060Z,17.23
2018-09-23T12:03:31.796Z,19.40
2018-09-23T12:05:34.984Z,22.22
2018-09-23T12:07:38.222Z,21.17
2018-09-23T12:09:41.726Z,21.05
2018-09-23T12:11:45.323Z,17.17
2018-09-23T12:13:49.150Z,19.10
2018-09-23T12:15:53.496Z,17.70
2018-09-23T12:17:56.835Z,19.33
2018-09-23T12:20:01.005Z,36.60
2018-09-23T12:22:04.234Z,20.67
2018-09-23T12:24:07.432Z,16.03
2018-09-23T12:26:10.620Z,14.30
2018-09-23T12:28:13.912Z,18.82
2018-09-23T12:30:17.262Z,17.70
2018-09-23T12:32:20.808Z,17.03
2018-09-23T12:34:24.327Z,16.52
2018-09-23T12:36:27.976Z,16.65
2018-09-23T12:38:32.269Z,17.77
2018-09-23T12:40:35.833Z,19.33
2018-09-23T12:42:39.343Z,16.30
2018-09-23T12:44:42.904Z,13.13
2018-09-23T12:46:46.366Z,15.05
2018-09-23T12:48:49.664Z,14.67
2018-09-23T12:50:53.334Z,13.83
2018-09-23T12:52:57.176Z,13.13
2018-09-23T12:55:00.397Z,17.77
2018-09-23T12:57:03.586Z,10.90
2018-09-23T12:59:07.021Z,15.27
2018-09-23T13:01:10.373Z,18.27
2018-09-23T13:03:14.284Z,12.50
2018-09-23T13:05:17.874Z,15.27
2018-09-23T13:07:21.340Z,10.38
2018-09-23T13:09:24.919Z,10.88
2018-09-23T13:11:28.433Z,8.58
2018-09-23T13:13:32.000Z,8.63
2018-09-23T13:15:35.485Z,13.70
2018-09-23T13:17:39.549Z,9.33
2018-09-23T13:19:43.057Z,10.25
2018-09-23T13:21:46.281Z,8.88
2018-09-23T13:23:49.821Z,16.85
2018-09-23T13:25:53.382Z,7.37
2018-09-23T13:27:56.832Z,10.35
2018-09-23T13:30:00.582Z,7.83
2018-09-23T13:32:04.079Z,8.10
2018-09-23T13:34:07.553Z,6.20
2018-09-23T13:36:10.764Z,7.83
2018-09-23T13:38:13.942Z,12.27
2018-09-23T13:40:17.138Z,4.97
2018-09-23T13:42:20.925Z,3.40
2018-09-23T13:44:24.376Z,8.85
2018-09-23T13:46:27.578Z,9.65
2018-09-23T13:48:31.343Z,4.60
2018-09-23T13:50:34.855Z,5.60
2018-09-23T13:52:38.308Z,7.28
2018-09-23T13:54:41.569Z,5.13
2018-09-23T13:56:44.801Z,5.47
2018-09-23T13:58:48.075Z,7.17
2018-09-23T14:00:51.595Z,5.92
2018-09-23T14:02:55.062Z,8.03
2018-09-23T14:04:58.585Z,12.73
2018-09-23T14:07:02.875Z,5.12
2018-09-23T14:09:06.779Z,5.92
2018-09-23T14:11:10.224Z,9.95
2018-09-23T14:13:13.800Z,8.37
2018-09-23T14:15:17.300Z,9.68
2018-09-23T14:17:20.798Z,10.38
2018-09-23T14:19:25.028Z,9.47
2018-09-23T14:21:28.225Z,8.70
2018-09-23T14:23:31.512Z,6.17
2018-09-23T14:25:34.984Z,8.55
2018-09-23T14:27:38.458Z,6.83
2018-09-23T14:29:41.900Z,7.90
2018-09-23T14:31:45.436Z,9.10
2018-09-23T14:33:49.104Z,8.83
2018-09-23T14:35:52.964Z,6.58
2018-09-23T14:37:56.476Z,9.73
2018-09-23T14:40:00.297Z,6.83
2018-09-23T14:42:03.823Z,8.00
2018-09-23T14:44:07.908Z,9.45
2018-09-23T14:46:11.376Z,7.87
2018-09-23T14:48:14.843Z,7.17
2018-09-23T14:50:18.370Z,5.50
2018-09-23T14:52:22.864Z,6.08
2018-09-23T14:54:26.505Z,6.60
2018-09-23T14:56:30.165Z,6.87
2018-09-23T14:58:34.242Z,7.95
2018-09-23T15:00:37.766Z,7.95
2018-09-23T15:02:41.716Z,7.10
2018-09-23T15:04:45.200Z,7.28
2018-09-23T15:06:48.676Z,7.10
2018-09-23T15:08:52.056Z,5.27
2018-09-23T15:10:55.272Z,5.60
2018-09-23T15:12:58.499Z,4.17
2018-09-23T15:15:01.709Z,5.93
2018-09-23T15:17:04.924Z,5.90
2018-09-23T15:19:08.394Z,5.70
2018-09-23T15:21:11.864Z,5.17
2018-09-23T15:23:15.358Z,6.42
2018-09-23T15:25:19.057Z,6.80
2018-09-23T15:27:22.508Z,5.95
2018-09-23T15:29:25.994Z,4.30
2018-09-23T15:31:29.172Z,7.03
2018-09-23T15:33:32.452Z,7.17
2018-09-23T15:35:35.655Z,8.37
2018-09-23T15:37:39.136Z,7.05
2018-09-23T15:39:42.777Z,8.40
2018-09-23T15:41:46.737Z,6.20
2018-09-23T15:43:50.264Z,6.83
2018-09-23T15:45:53.800Z,5.33
2018-09-23T15:47:57.316Z,6.00
2018-09-23T15:50:00.757Z,6.72
2018-09-23T15:52:04.000Z,6.75
2018-09-23T15:54:08.017Z,5.10
2018-09-23T15:56:11.710Z,3.70
2018-09-23T15:58:15.356Z,5.75
2018-09-23T16:00:18.879Z,5.03
2018-09-23T16:02:22.065Z,4.73
2018-09-23T16:04:25.301Z,6.00
2018-09-23T16:06:29.159Z,6.90
2018-09-23T16:08:32.955Z,5.83
2018-09-23T16:10:36.481Z,8.90
2018-09-23T16:12:40.275Z,5.08
2018-09-23T16:14:43.957Z,7.20
2018-09-23T16:16:47.336Z,8.98
2018-09-23T16:18:50.729Z,7.42
2018-09-23T16:20:54.256Z,7.33
2018-09-23T16:22:57.732Z,5.97
2018-09-23T16:25:01.683Z,6.58
2018-09-23T16:27:05.330Z,8.05
2018-09-23T16:29:08.926Z,6.47
2018-09-23T16:31:12.667Z,6.65
2018-09-23T16:33:16.072Z,8.60
2018-09-23T16:35:19.308Z,8.43
2018-09-23T16:37:23.144Z,6.53
2018-09-23T16:39:26.714Z,6.12
2018-09-23T16:41:30.177Z,8.78
2018-09-23T16:43:35.113Z,5.70
2018-09-23T16:45:38.784Z,7.15
2018-09-23T16:47:42.451Z,9.48
2018-09-23T16:49:46.268Z,8.00
2018-09-23T16:51:49.725Z,7.42
2018-09-23T16:53:52.898Z,7.07
2018-09-23T16:55:56.589Z,5.85
2018-09-23T16:58:00.045Z,6.85
2018-09-23T17:00:03.452Z,6.80
2018-09-23T17:02:07.333Z,5.93
2018-09-23T17:04:10.808Z,5.42
2018-09-23T17:06:14.093Z,3.60
2018-09-23T17:08:17.296Z,5.50
2018-09-23T17:10:20.761Z,4.47
2018-09-23T17:12:24.554Z,4.58
2018-09-23T17:14:28.004Z,7.00
2018-09-23T17:16:31.464Z,6.90
2018-09-23T17:18:34.925Z,7.53
2018-09-23T17:20:38.128Z,6.22
2018-09-23T17:22:41.335Z,8.15
2018-09-23T17:24:44.512Z,6.50
2018-09-23T17:26:48.195Z,8.23
2018-09-23T17:28:51.873Z,9.48
2018-09-23T17:30:55.214Z,9.10
2018-09-23T17:32:58.748Z,7.37
2018-09-23T17:35:02.454Z,10.98
2018-09-23T17:37:06.085Z,10.58
2018-09-23T17:39:10.788Z,7.58
2018-09-23T17:41:14.000Z,7.40
2018-09-23T17:43:17.905Z,11.53
2018-09-23T17:45:21.378Z,10.93
2018-09-23T17:47:24.591Z,14.43
2018-09-23T17:49:28.124Z,9.30
2018-09-23T17:51:31.885Z,8.00
2018-09-23T17:53:35.181Z,11.17
2018-09-23T17:55:38.378Z,7.03
2018-09-23T17:57:42.052Z,11.68
2018-09-23T17:59:45.834Z,10.65
2018-09-23T18:01:49.835Z,8.73
2018-09-23T18:03:53.541Z,9.08
2018-09-23T18:05:57.048Z,7.85
2018-09-23T18:08:00.296Z,7.15
2018-09-23T18:10:03.664Z,7.03
2018-09-23T18:12:07.457Z,7.45
2018-09-23T18:14:11.277Z,7.92
2018-09-23T18:16:14.800Z,9.68
2018-09-23T18:18:18.335Z,8.23
2018-09-23T18:20:21.583Z,6.27
2018-09-23T18:22:25.060Z,7.10
2018-09-23T18:24:28.563Z,9.33
2018-09-23T18:26:32.361Z,10.10
2018-09-23T18:28:35.869Z,7.28
2018-09-23T18:30:39.323Z,9.93
2018-09-23T18:32:42.632Z,8.87
2018-09-23T18:34:46.111Z,10.25
2018-09-23T18:36:49.932Z,8.40
2018-09-23T18:38:53.406Z,8.93
2018-09-23T18:40:56.872Z,9.55
2018-09-23T18:43:00.726Z,9.93
2018-09-23T18:45:04.224Z,10.00
2018-09-23T18:47:07.797Z,12.30
2018-09-23T18:49:11.855Z,7.97
2018-09-23T18:51:15.568Z,7.05
2018-09-23T18:53:23.956Z,6.90
2018-09-23T18:55:32.630Z,13.07
2018-09-23T18:57:36.143Z,7.77
2018-09-23T18:59:39.577Z,9.08
2018-09-23T19:01:42.808Z,6.78
2018-09-23T19:03:46.428Z,10.43
2018-09-23T19:05:50.120Z,15.18
2018-09-23T19:07:53.490Z,7.70
2018-09-23T19:09:57.009Z,8.00
2018-09-23T19:12:00.481Z,6.25
2018-09-23T19:14:03.959Z,6.45
2018-09-23T19:16:13.110Z,6.92
2018-09-23T19:18:16.814Z,10.10
2018-09-23T19:20:20.261Z,5.47
2018-09-23T19:22:28.927Z,8.20
2018-09-23T19:24:32.310Z,6.00
2018-09-23T19:26:36.093Z,4.65
2018-09-23T19:28:39.545Z,8.63
2018-09-23T19:30:43.336Z,5.95
2018-09-23T19:32:46.545Z,9.23
2018-09-23T19:34:49.988Z,6.40
2018-09-23T19:36:53.552Z,6.53
2018-09-23T19:38:57.244Z,6.50
2018-09-23T19:41:01.098Z,7.35
2018-09-23T19:43:04.340Z,6.40
2018-09-23T19:45:07.976Z,8.98
2018-09-23T19:47:11.412Z,11.97
2018-09-23T19:49:15.872Z,6.87
2018-09-23T19:51:19.585Z,5.25
2018-09-23T19:53:23.053Z,8.58
2018-09-23T19:55:27.312Z,8.00
2018-09-23T19:57:30.882Z,11.00
2018-09-23T19:59:34.334Z,6.92
2018-09-23T20:01:38.328Z,8.80
2018-09-23T20:03:41.766Z,7.78
2018-09-23T20:05:45.306Z,8.15
2018-09-23T20:07:48.773Z,8.20
2018-09-23T20:09:52.447Z,4.95
2018-09-23T20:11:55.619Z,6.13
2018-09-23T20:13:58.800Z,11.63
2018-09-23T20:16:02.008Z,8.37
2018-09-23T20:18:05.227Z,7.00
2018-09-23T20:20:08.889Z,8.70
2018-09-23T20:22:13.302Z,8.78
2018-09-23T20:24:16.766Z,7.10
2018-09-23T20:26:20.260Z,5.33
2018-09-23T20:28:23.914Z,9.05
2018-09-23T20:30:27.934Z,7.08
2018-09-23T20:32:31.172Z,9.80
2018-09-23T20:34:34.433Z,7.00
2018-09-23T20:36:38.097Z,5.35
2018-09-23T20:38:41.593Z,8.20
2018-09-23T20:40:45.279Z,5.25
2018-09-23T20:42:48.826Z,6.05
2018-09-23T20:44:52.143Z,6.92
2018-09-23T20:46:55.752Z,4.70
2018-09-23T20:48:59.524Z,3.25
2018-09-23T20:51:03.089Z,3.67
2018-09-23T20:53:06.926Z,6.17
2018-09-23T20:55:10.421Z,6.20
2018-09-23T20:57:13.793Z,4.83
2018-09-23T20:59:17.188Z,3.58
2018-09-23T21:01:20.632Z,5.43
2018-09-23T21:03:24.105Z,2.60
2018-09-23T21:05:27.880Z,5.80
2018-09-23T21:07:31.452Z,4.50
2018-09-23T21:09:34.953Z,7.33
2018-09-23T21:11:38.750Z,4.60
2018-09-23T21:13:42.193Z,8.03
2018-09-23T21:15:45.375Z,3.00
2018-09-23T21:17:49.126Z,3.10
2018-09-23T21:19:52.572Z,4.08
2018-09-23T21:21:55.794Z,6.60
2018-09-23T21:23:59.021Z,5.10
2018-09-23T21:26:03.205Z,7.27
2018-09-23T21:28:06.876Z,7.20
2018-09-23T21:30:10.432Z,8.53
2018-09-23T21:32:13.964Z,3.63
2018-09-23T21:34:17.428Z,5.08
2018-09-23T21:36:21.336Z,6.80
2018-09-23T21:38:25.138Z,5.17
2018-09-23T21:40:28.328Z,6.80
2018-09-23T21:42:31.828Z,10.48
2018-09-23T21:44:35.280Z,7.42
2018-09-23T21:46:38.756Z,5.08
2018-09-23T21:48:41.937Z,7.70
2018-09-23T21:50:45.124Z,6.70
2018-09-23T21:52:48.620Z,4.42
2018-09-23T21:54:52.092Z,5.00
2018-09-23T21:56:55.555Z,4.97
2018-09-23T21:58:58.769Z,5.07
2018-09-23T22:01:02.546Z,4.42
2018-09-23T22:03:06.483Z,5.40
2018-09-23T22:05:10.656Z,2.60
2018-09-23T22:07:14.100Z,3.15
2018-09-23T22:09:17.648Z,2.70
2018-09-23T22:11:21.130Z,4.33
2018-09-23T22:13:24.565Z,3.90
2018-09-23T22:15:27.754Z,6.35
2018-09-23T22:17:31.565Z,4.08
2018-09-23T22:19:35.406Z,5.45
2018-09-23T22:21:38.947Z,5.00
2018-09-23T22:23:42.569Z,5.42
2018-09-23T22:25:45.742Z,5.10
2018-09-23T22:27:49.256Z,7.58
2018-09-23T22:29:52.700Z,2.37
2018-09-23T22:31:56.508Z,1.70
2018-09-23T22:33:59.978Z,4.40
2018-09-23T22:36:03.428Z,5.55
2018-09-23T22:38:06.784Z,5.00
2018-09-23T22:40:10.625Z,7.15
2018-09-23T22:42:13.814Z,3.25
2018-09-23T22:44:17.657Z,5.67
2018-09-23T22:46:21.120Z,4.12
2018-09-23T22:48:24.323Z,4.50
2018-09-23T22:50:27.509Z,3.20
2018-09-23T22:52:30.716Z,4.40
2018-09-23T22:54:34.184Z,4.25
2018-09-23T22:56:38.114Z,5.00
2018-09-23T22:58:41.542Z,4.35
2018-09-23T23:00:45.020Z,4.65
2018-09-23T23:02:48.264Z,7.17
2018-09-23T23:04:51.660Z,6.87
2018-09-23T23:06:55.160Z,5.17
2018-09-23T23:08:59.281Z,3.27
2018-09-23T23:11:02.725Z,5.92
2018-09-23T23:13:05.907Z,5.30
2018-09-23T23:15:09.692Z,3.55
2018-09-23T23:17:13.229Z,3.27
2018-09-23T23:19:17.084Z,4.12
2018-09-23T23:21:20.548Z,4.20
2018-09-23T23:23:23.765Z,7.17
2018-09-23T23:25:27.505Z,4.17
2018-09-23T23:27:31.017Z,9.10
2018-09-23T23:29:34.182Z,3.92
2018-09-23T23:31:37.436Z,3.22
2018-09-23T23:33:40.643Z,3.70
2018-09-23T23:35:44.424Z,4.28
2018-09-23T23:37:47.896Z,3.58
2018-09-23T23:39:51.104Z,4.50
2018-09-23T23:41:54.620Z,4.85
2018-09-23T23:43:58.060Z,7.05
2018-09-23T23:46:01.501Z,2.40
2018-09-23T23:48:05.300Z,2.75
2018-09-23T23:50:08.480Z,4.08
2018-09-23T23:52:11.700Z,3.72
2018-09-23T23:54:14.917Z,3.05
2018-09-23T23:56:18.121Z,6.20
2018-09-23T23:58:21.656Z,6.87
